createdAt,value
2019-03-23T00:00:39.188Z,74.8
2019-03-23T00:01:28.489Z,74.8
2019-03-23T00:02:18.492Z,74.8
2019-03-23T00:03:08.538Z,74.9
2019-03-23T00:03:58.729Z,74.9
2019-03-23T00:04:50.086Z,74.9
2019-03-23T00:05:38.544Z,75
2019-03-23T00:06:30.906Z,75
2019-03-23T00:07:18.521Z,75
2019-03-23T00:08:08.508Z,75.2
2019-03-23T00:08:58.540Z,75.1
2019-03-23T00:09:51.230Z,75
2019-03-23T00:10:38.538Z,75.1
2019-03-23T00:11:28.551Z,75
2019-03-23T00:12:18.563Z,75
2019-03-23T00:13:08.593Z,75
2019-03-23T00:13:58.537Z,75.1
2019-03-23T00:14:48.902Z,75.1
2019-03-23T00:15:38.576Z,75.1
2019-03-23T00:16:28.557Z,75.1
2019-03-23T00:17:18.543Z,75.1
2019-03-23T00:18:08.547Z,75.1
2019-03-23T00:18:58.522Z,75.2
2019-03-23T00:19:48.548Z,75.1
2019-03-23T00:20:38.629Z,75.1
2019-03-23T00:21:28.527Z,75.2
2019-03-23T00:22:18.567Z,75.2
2019-03-23T00:23:08.546Z,75.1
2019-03-23T00:23:58.563Z,75
2019-03-23T00:24:48.510Z,75.1
2019-03-23T00:25:38.659Z,75.1
2019-03-23T00:26:28.542Z,75.1
2019-03-23T00:27:18.528Z,75.2
2019-03-23T00:28:08.572Z,75.3
2019-03-23T00:28:58.553Z,75.3
2019-03-23T00:29:48.569Z,75.2
2019-03-23T00:30:38.536Z,75.2
2019-03-23T00:31:28.543Z,75.3
2019-03-23T00:32:18.539Z,75.2
2019-03-23T00:33:08.601Z,75.3
2019-03-23T00:33:58.522Z,75.2
2019-03-23T00:34:48.532Z,75.4
2019-03-23T00:35:38.591Z,75.4
2019-03-23T00:36:28.541Z,75.4
2019-03-23T00:37:18.547Z,75.5
2019-03-23T00:38:08.512Z,75.6
2019-03-23T00:38:58.556Z,75.7
2019-03-23T00:39:48.825Z,75.8
2019-03-23T00:40:39.282Z,75.7
2019-03-23T00:41:28.830Z,75.8
2019-03-23T00:42:18.813Z,75.7
2019-03-23T00:43:09.037Z,75.8
2019-03-23T00:43:59.043Z,75.9
2019-03-23T00:44:49.211Z,75.8
2019-03-23T00:45:39.742Z,75.9
2019-03-23T00:46:29.089Z,76.1
2019-03-23T00:47:19.022Z,76.1
2019-03-23T00:48:09.456Z,76.1
2019-03-23T00:49:00.417Z,76
2019-03-23T00:49:49.335Z,76.1
2019-03-23T00:50:40.421Z,76.2
2019-03-23T00:51:29.577Z,76.2
2019-03-23T00:52:19.291Z,76.3
2019-03-23T00:53:09.306Z,76.4
2019-03-23T00:53:59.717Z,76.3
2019-03-23T00:54:49.364Z,76.2
2019-03-23T00:55:40.917Z,76.3
2019-03-23T00:56:29.315Z,76.4
2019-03-23T00:57:19.278Z,76.3
2019-03-23T00:58:09.350Z,76.4
2019-03-23T00:58:59.293Z,76.5
2019-03-23T00:59:49.382Z,76.4
2019-03-23T01:00:40.084Z,76.5
2019-03-23T01:01:29.277Z,76.5
2019-03-23T01:02:19.309Z,76.5
2019-03-23T01:03:09.345Z,76.5
2019-03-23T01:03:59.385Z,76.6
2019-03-23T01:04:49.953Z,76.6
2019-03-23T01:05:41.452Z,76.5
2019-03-23T01:06:29.561Z,76.6
2019-03-23T01:07:19.533Z,76.5
2019-03-23T01:08:09.864Z,76.6
2019-03-23T01:08:59.833Z,76.6
2019-03-23T01:09:49.867Z,76.6
2019-03-23T01:10:39.791Z,76.7
2019-03-23T01:11:29.815Z,76.7
2019-03-23T01:12:19.820Z,76.7
2019-03-23T01:13:09.814Z,76.6
2019-03-23T01:14:00.796Z,76.7
2019-03-23T01:14:49.833Z,76.7
2019-03-23T01:15:40.737Z,76.8
2019-03-23T01:16:29.805Z,76.9
2019-03-23T01:17:19.783Z,76.8
2019-03-23T01:18:09.801Z,76.8
2019-03-23T01:19:01.191Z,76.8
2019-03-23T01:19:49.929Z,76.8
2019-03-23T01:20:49.248Z,76.8
2019-03-23T01:21:29.802Z,76.9
2019-03-23T01:22:19.915Z,76.9
2019-03-23T01:23:09.855Z,76.9
2019-03-23T01:24:02.769Z,77.1
2019-03-23T01:24:49.843Z,77.1
2019-03-23T01:25:39.791Z,77.1
2019-03-23T01:26:29.834Z,77
2019-03-23T01:27:19.812Z,77.1
2019-03-23T01:28:09.839Z,77.3
2019-03-23T01:28:59.773Z,77.4
2019-03-23T01:29:49.829Z,77.3
2019-03-23T01:30:40.191Z,77.4
2019-03-23T01:31:29.819Z,77.3
2019-03-23T01:32:19.843Z,77.3
2019-03-23T01:33:09.882Z,77.3
2019-03-23T01:33:59.819Z,77.3
2019-03-23T01:34:49.813Z,77.4
2019-03-23T01:35:40.638Z,77.4
2019-03-23T01:36:29.878Z,77.5
2019-03-23T01:37:19.827Z,77.5
2019-03-23T01:38:09.829Z,77.7
2019-03-23T01:38:59.863Z,77.8
2019-03-23T01:39:49.840Z,77.8
2019-03-23T01:40:40.502Z,77.8
2019-03-23T01:41:29.868Z,77.8
2019-03-23T01:42:19.829Z,77.8
2019-03-23T01:43:09.797Z,77.8
2019-03-23T01:43:59.820Z,77.9
2019-03-23T01:44:49.819Z,77.8
2019-03-23T01:45:39.856Z,77.8
2019-03-23T01:46:29.940Z,78
2019-03-23T01:47:19.865Z,78
2019-03-23T01:48:09.819Z,78
2019-03-23T01:48:59.851Z,78.1
2019-03-23T01:49:49.874Z,78.1
2019-03-23T01:50:40.517Z,78
2019-03-23T01:51:29.902Z,78.2
2019-03-23T01:52:19.866Z,78.2
2019-03-23T01:53:09.851Z,78.2
2019-03-23T01:53:59.838Z,78.2
2019-03-23T01:54:49.816Z,78.1
2019-03-23T01:55:40.484Z,78.1
2019-03-23T01:56:29.801Z,78.1
2019-03-23T01:57:19.834Z,78.1
2019-03-23T01:58:10.368Z,78.1
2019-03-23T01:59:00.145Z,78.2
2019-03-23T01:59:49.826Z,78.3
2019-03-23T02:00:40.515Z,78.2
2019-03-23T02:01:29.839Z,78.3
2019-03-23T02:02:19.867Z,78.3
2019-03-23T02:03:09.816Z,78.4
2019-03-23T02:03:59.820Z,78.4
2019-03-23T02:04:49.783Z,78.4
2019-03-23T02:05:39.950Z,78.4
2019-03-23T02:06:29.865Z,78.4
2019-03-23T02:07:19.835Z,78.4
2019-03-23T02:08:09.910Z,78.4
2019-03-23T02:08:59.857Z,78.4
2019-03-23T02:09:49.831Z,78.4
2019-03-23T02:10:41.830Z,78.4
2019-03-23T02:11:29.834Z,78.5
2019-03-23T02:12:19.870Z,78.7
2019-03-23T02:13:09.951Z,78.3
2019-03-23T02:13:59.812Z,78.9
2019-03-23T02:14:49.862Z,78.8
2019-03-23T02:15:40.699Z,78.8
2019-03-23T02:16:29.820Z,78.7
2019-03-23T02:17:19.870Z,78.7
2019-03-23T02:18:11.085Z,78.6
2019-03-23T02:18:59.842Z,78.7
2019-03-23T02:19:49.846Z,78.8
2019-03-23T02:20:40.459Z,78.9
2019-03-23T02:21:29.847Z,78.8
2019-03-23T02:22:19.884Z,78.8
2019-03-23T02:23:11.704Z,78.8
2019-03-23T02:23:59.852Z,78.8
2019-03-23T02:24:49.822Z,78.8
2019-03-23T02:25:40.679Z,78.8
2019-03-23T02:26:29.830Z,78.8
2019-03-23T02:27:28.621Z,78.8
2019-03-23T02:28:12.062Z,78.7
2019-03-23T02:28:59.836Z,78.9
2019-03-23T02:29:49.823Z,78.9
2019-03-23T02:30:40.008Z,78.9
2019-03-23T02:31:29.913Z,78.9
2019-03-23T02:32:19.843Z,78.9
2019-03-23T02:33:09.844Z,79.2
2019-03-23T02:33:59.821Z,79.3
2019-03-23T02:34:49.915Z,79.3
2019-03-23T02:35:40.444Z,79.4
2019-03-23T02:36:29.837Z,79.5
2019-03-23T02:37:27.417Z,79.6
2019-03-23T02:38:09.855Z,79.5
2019-03-23T02:38:59.837Z,79.5
2019-03-23T02:39:49.844Z,79.7
2019-03-23T02:40:40.849Z,79.7
2019-03-23T02:41:29.824Z,79.7
2019-03-23T02:42:19.855Z,79.7
2019-03-23T02:43:09.874Z,79.7
2019-03-23T02:43:59.834Z,79.8
2019-03-23T02:44:49.845Z,79.9
2019-03-23T02:45:42.031Z,79.9
2019-03-23T02:46:29.866Z,79.9
2019-03-23T02:47:19.838Z,79.8
2019-03-23T02:48:09.843Z,79.9
2019-03-23T02:48:59.880Z,80
2019-03-23T02:49:49.846Z,80
2019-03-23T02:50:40.673Z,79.9
2019-03-23T02:51:29.907Z,80
2019-03-23T02:52:19.849Z,79.9
2019-03-23T02:53:09.831Z,80.1
2019-03-23T02:53:59.826Z,80
2019-03-23T02:54:49.832Z,80
2019-03-23T02:55:41.378Z,80
2019-03-23T02:56:29.817Z,80.1
2019-03-23T02:57:19.822Z,80.1
2019-03-23T02:58:09.823Z,80.1
2019-03-23T02:58:59.789Z,80.1
2019-03-23T02:59:49.822Z,80.2
2019-03-23T03:00:41.487Z,80.4
2019-03-23T03:01:30.128Z,80.4
2019-03-23T03:02:20.371Z,80.3
2019-03-23T03:03:10.438Z,80.2
2019-03-23T03:04:00.417Z,80.1
2019-03-23T03:04:49.952Z,80.2
2019-03-23T03:05:41.390Z,80.2
2019-03-23T03:06:30.026Z,80.3
2019-03-23T03:07:19.841Z,80.4
2019-03-23T03:08:09.854Z,80.5
2019-03-23T03:08:59.799Z,80.4
2019-03-23T03:09:49.891Z,80.4
2019-03-23T03:10:39.846Z,80.4
2019-03-23T03:11:29.915Z,80.4
2019-03-23T03:12:20.110Z,80.4
2019-03-23T03:13:09.910Z,80.3
2019-03-23T03:13:59.855Z,80.3
2019-03-23T03:14:49.860Z,80.4
2019-03-23T03:15:40.844Z,80.3
2019-03-23T03:16:29.885Z,80.2
2019-03-23T03:17:20.334Z,80.2
2019-03-23T03:18:09.902Z,80.3
2019-03-23T03:18:59.900Z,80.4
2019-03-23T03:19:49.862Z,80.4
2019-03-23T03:20:40.552Z,80.3
2019-03-23T03:21:29.853Z,80.5
2019-03-23T03:22:20.514Z,80.5
2019-03-23T03:23:10.003Z,80.4
2019-03-23T03:23:59.853Z,80.3
2019-03-23T03:24:49.808Z,80.2
2019-03-23T03:25:40.982Z,80.2
2019-03-23T03:26:30.007Z,80.2
2019-03-23T03:27:22.089Z,80.3
2019-03-23T03:28:09.888Z,80.2
2019-03-23T03:28:59.858Z,80.3
2019-03-23T03:29:49.877Z,80.3
2019-03-23T03:30:39.869Z,80.4
2019-03-23T03:31:29.844Z,80.4
2019-03-23T03:32:22.909Z,80.4
2019-03-23T03:33:09.828Z,80.4
2019-03-23T03:33:59.869Z,80.4
2019-03-23T03:34:49.873Z,80.4
2019-03-23T03:35:41.021Z,80.4
2019-03-23T03:36:30.276Z,80.6
2019-03-23T03:37:19.992Z,81
2019-03-23T03:38:09.843Z,81.2
2019-03-23T03:38:59.888Z,81.3
2019-03-23T03:39:49.844Z,81.3
2019-03-23T03:40:39.871Z,81.2
2019-03-23T03:41:29.886Z,81.1
2019-03-23T03:42:19.846Z,81.1
2019-03-23T03:43:09.846Z,81.1
2019-03-23T03:43:59.815Z,81.1
2019-03-23T03:44:49.852Z,81.1
2019-03-23T03:45:40.926Z,81
2019-03-23T03:46:29.855Z,81
2019-03-23T03:47:19.830Z,81.6
2019-03-23T03:48:09.844Z,81.9
2019-03-23T03:49:11.674Z,82
2019-03-23T03:49:49.871Z,82.1
2019-03-23T03:50:40.198Z,82
2019-03-23T03:51:29.856Z,82
2019-03-23T03:52:19.820Z,81.9
2019-03-23T03:53:09.867Z,81.9
2019-03-23T03:53:59.831Z,81.7
2019-03-23T03:54:49.854Z,81.7
2019-03-23T03:55:42.158Z,81.6
2019-03-23T03:56:29.987Z,81.8
2019-03-23T03:57:19.837Z,81.9
2019-03-23T03:58:09.849Z,81.9
2019-03-23T03:58:59.849Z,81.8
2019-03-23T03:59:50.074Z,81.9
2019-03-23T04:00:40.811Z,81.9
2019-03-23T04:01:29.899Z,81.9
2019-03-23T04:02:20.081Z,81.9
2019-03-23T04:03:10.078Z,81.9
2019-03-23T04:04:00.548Z,82
2019-03-23T04:04:49.869Z,82.2
2019-03-23T04:05:40.444Z,82.3
2019-03-23T04:06:30.650Z,82.6
2019-03-23T04:07:19.890Z,82.5
2019-03-23T04:08:11.822Z,82.6
2019-03-23T04:08:59.877Z,82.9
2019-03-23T04:09:49.864Z,83
2019-03-23T04:10:39.838Z,83
2019-03-23T04:11:29.847Z,83
2019-03-23T04:12:19.872Z,83.1
2019-03-23T04:13:09.882Z,83.1
2019-03-23T04:13:59.870Z,83.3
2019-03-23T04:14:49.888Z,84
2019-03-23T04:15:39.992Z,84.4
2019-03-23T04:16:30.201Z,84.8
2019-03-23T04:17:19.854Z,85.6
2019-03-23T04:18:09.879Z,85.4
2019-03-23T04:18:59.864Z,85.3
2019-03-23T04:19:49.859Z,85.4
2019-03-23T04:20:39.865Z,85.7
2019-03-23T04:21:31.002Z,85.6
2019-03-23T04:22:19.870Z,85.7
2019-03-23T04:23:09.867Z,85.7
2019-03-23T04:23:59.988Z,86.7
2019-03-23T04:24:49.884Z,86.6
2019-03-23T04:25:40.252Z,86.6
2019-03-23T04:26:31.728Z,86.6
2019-03-23T04:27:19.834Z,86.8
2019-03-23T04:28:09.863Z,86.9
2019-03-23T04:28:59.899Z,86.9
2019-03-23T04:29:49.890Z,87.4
2019-03-23T04:30:39.897Z,87.9
2019-03-23T04:31:32.547Z,88.5
2019-03-23T04:32:19.865Z,88.4
2019-03-23T04:33:09.845Z,88.3
2019-03-23T04:33:59.895Z,88.5
2019-03-23T04:34:49.858Z,88.7
2019-03-23T04:35:41.932Z,88.6
2019-03-23T04:36:29.859Z,88.8
2019-03-23T04:37:19.892Z,88.7
2019-03-23T04:38:21.864Z,88.7
2019-03-23T04:38:59.853Z,88.8
2019-03-23T04:39:49.864Z,88.9
2019-03-23T04:40:39.921Z,89.3
2019-03-23T04:41:30.094Z,89.3
2019-03-23T04:42:19.852Z,89.6
2019-03-23T04:43:09.913Z,89.8
2019-03-23T04:43:59.849Z,89.9
2019-03-23T04:44:49.967Z,89.9
2019-03-23T04:45:41.264Z,90
2019-03-23T04:46:30.212Z,90
2019-03-23T04:47:20.115Z,90.1
2019-03-23T04:48:10.210Z,90.3
2019-03-23T04:49:00.163Z,90.5
2019-03-23T04:49:50.154Z,90.4
2019-03-23T04:50:40.139Z,90.3
2019-03-23T04:51:30.133Z,90.4
2019-03-23T04:52:20.172Z,90.7
2019-03-23T04:53:10.115Z,90.7
2019-03-23T04:54:00.571Z,90.7
2019-03-23T04:54:50.103Z,91
2019-03-23T04:55:40.211Z,91.1
2019-03-23T04:56:30.165Z,91.1
2019-03-23T04:57:22.643Z,91.2
2019-03-23T04:58:10.103Z,91.3
2019-03-23T04:59:00.148Z,91.3
2019-03-23T04:59:50.164Z,91.3
2019-03-23T05:00:40.756Z,91.2
2019-03-23T05:01:30.109Z,91.2
2019-03-23T05:02:20.128Z,91.2
2019-03-23T05:03:10.139Z,91.3
2019-03-23T05:04:00.300Z,91.4
2019-03-23T05:04:50.125Z,91.4
2019-03-23T05:05:40.161Z,91.6
2019-03-23T05:06:30.143Z,91.6
2019-03-23T05:07:20.151Z,91.8
2019-03-23T05:08:10.120Z,91.7
2019-03-23T05:09:00.579Z,91.6
2019-03-23T05:09:50.137Z,91.6
2019-03-23T05:10:41.409Z,91.5
2019-03-23T05:11:30.116Z,91.5
2019-03-23T05:12:20.153Z,91.7
2019-03-23T05:13:10.308Z,91.8
2019-03-23T05:14:00.689Z,91.8
2019-03-23T05:14:50.507Z,91.7
2019-03-23T05:15:40.361Z,91.8
2019-03-23T05:16:30.400Z,91.8
2019-03-23T05:17:20.128Z,91.9
2019-03-23T05:18:10.184Z,92.1
2019-03-23T05:19:00.796Z,92.2
2019-03-23T05:19:50.116Z,92.2
2019-03-23T05:20:40.762Z,92.2
2019-03-23T05:21:30.126Z,92.1
2019-03-23T05:22:20.105Z,92.3
2019-03-23T05:23:10.130Z,92.3
2019-03-23T05:24:00.576Z,92.3
2019-03-23T05:24:50.170Z,92.4
2019-03-23T05:25:41.477Z,92.5
2019-03-23T05:26:30.175Z,92.4
2019-03-23T05:27:58.424Z,92.5
2019-03-23T05:28:10.127Z,92.4
2019-03-23T05:29:00.598Z,92.5
2019-03-23T05:29:50.212Z,92.6
2019-03-23T05:30:41.597Z,92.6
2019-03-23T05:31:30.363Z,92.5
2019-03-23T05:32:20.183Z,92.5
2019-03-23T05:33:10.095Z,92.5
2019-03-23T05:34:00.599Z,92.5
2019-03-23T05:34:50.114Z,92.5
2019-03-23T05:35:42.284Z,92.5
2019-03-23T05:36:30.235Z,92.5
2019-03-23T05:37:20.128Z,92.5
2019-03-23T05:38:10.121Z,92.6
2019-03-23T05:39:00.487Z,92.6
2019-03-23T05:39:50.118Z,92.6
2019-03-23T05:40:41.875Z,92.4
2019-03-23T05:41:31.023Z,92.6
2019-03-23T05:42:20.893Z,92.6
2019-03-23T05:43:10.942Z,92.7
2019-03-23T05:44:00.944Z,92.9
2019-03-23T05:44:50.936Z,92.9
2019-03-23T05:45:41.019Z,92.9
2019-03-23T05:46:30.970Z,92.8
2019-03-23T05:47:20.932Z,92.8
2019-03-23T05:48:10.916Z,92.8
2019-03-23T05:49:00.962Z,92.8
2019-03-23T05:49:50.935Z,92.8
2019-03-23T05:50:41.014Z,92.8
2019-03-23T05:51:30.886Z,92.8
2019-03-23T05:52:20.912Z,92.9
2019-03-23T05:53:10.894Z,92.8
2019-03-23T05:54:00.970Z,92.9
2019-03-23T05:54:50.923Z,92.9
2019-03-23T05:55:41.003Z,92.9
2019-03-23T05:56:30.955Z,92.9
2019-03-23T05:57:20.915Z,92.9
2019-03-23T05:58:10.914Z,92.9
2019-03-23T05:59:00.897Z,92.9
2019-03-23T05:59:50.971Z,92.9
2019-03-23T06:00:41.016Z,92.9
2019-03-23T06:01:30.913Z,93
2019-03-23T06:02:20.976Z,93.1
2019-03-23T06:03:10.938Z,93.1
2019-03-23T06:04:00.941Z,93.1
2019-03-23T06:04:51.865Z,93.1
2019-03-23T06:05:41.058Z,93.1
2019-03-23T06:06:30.920Z,93.1
2019-03-23T06:07:20.956Z,93.2
2019-03-23T06:08:10.916Z,93.2
2019-03-23T06:09:01.975Z,93.2
2019-03-23T06:09:50.910Z,93.4
2019-03-23T06:10:40.912Z,93.4
2019-03-23T06:11:30.921Z,93.4
2019-03-23T06:12:21.053Z,93.4
2019-03-23T06:13:11.044Z,93.4
2019-03-23T06:14:00.922Z,93.4
2019-03-23T06:14:51.609Z,93.4
2019-03-23T06:15:41.008Z,93.4
2019-03-23T06:16:30.963Z,93.3
2019-03-23T06:17:20.894Z,93.4
2019-03-23T06:18:10.988Z,93.4
2019-03-23T06:19:00.917Z,93.4
2019-03-23T06:19:51.044Z,93.4
2019-03-23T06:20:40.929Z,93.4
2019-03-23T06:21:30.928Z,93.4
2019-03-23T06:22:20.929Z,93.4
2019-03-23T06:23:10.973Z,93.5
2019-03-23T06:24:00.970Z,93.5
2019-03-23T06:24:51.693Z,93.5
2019-03-23T06:25:40.901Z,93.5
2019-03-23T06:26:30.941Z,93.5
2019-03-23T06:27:21.023Z,93.5
2019-03-23T06:28:10.932Z,93.5
2019-03-23T06:29:00.956Z,93.5
2019-03-23T06:29:51.049Z,93.6
2019-03-23T06:30:40.977Z,93.6
2019-03-23T06:31:30.934Z,93.6
2019-03-23T06:32:20.916Z,93.6
2019-03-23T06:33:10.940Z,93.7
2019-03-23T06:34:00.943Z,93.8
2019-03-23T06:34:50.917Z,93.8
2019-03-23T06:35:40.921Z,93.8
2019-03-23T06:36:30.915Z,93.8
2019-03-23T06:37:20.946Z,93.8
2019-03-23T06:38:10.953Z,93.8
2019-03-23T06:39:05.297Z,93.8
2019-03-23T06:39:51.280Z,93.8
2019-03-23T06:40:40.944Z,93.9
2019-03-23T06:41:30.918Z,93.8
2019-03-23T06:42:20.948Z,93.9
2019-03-23T06:43:11.087Z,93.9
2019-03-23T06:44:01.079Z,93.9
2019-03-23T06:44:53.221Z,93.9
2019-03-23T06:45:40.934Z,94.1
2019-03-23T06:46:31.059Z,94.1
2019-03-23T06:47:20.969Z,94.1
2019-03-23T06:48:10.938Z,94
2019-03-23T06:49:00.929Z,94
2019-03-23T06:49:54.160Z,94.2
2019-03-23T06:50:40.951Z,94.2
2019-03-23T06:51:30.989Z,94.1
2019-03-23T06:52:20.950Z,94.2
2019-03-23T06:53:10.971Z,94.1
2019-03-23T06:54:00.962Z,94.1
2019-03-23T06:54:50.950Z,94.1
2019-03-23T06:55:41.035Z,94.1
2019-03-23T06:56:30.950Z,94.1
2019-03-23T06:57:21.020Z,94
2019-03-23T06:58:10.941Z,94.1
2019-03-23T06:59:01.264Z,94.2
2019-03-23T06:59:50.941Z,94.2
2019-03-23T07:00:40.918Z,94.2
2019-03-23T07:01:30.892Z,94.2
2019-03-23T07:02:20.928Z,94.2
2019-03-23T07:03:10.956Z,94.2
2019-03-23T07:04:00.935Z,94.2
2019-03-23T07:04:50.969Z,94.2
2019-03-23T07:05:41.585Z,94.1
2019-03-23T07:06:30.985Z,94.2
2019-03-23T07:07:20.938Z,94.2
2019-03-23T07:08:10.962Z,94.2
2019-03-23T07:09:02.469Z,94.2
2019-03-23T07:09:50.928Z,94.2
2019-03-23T07:10:40.949Z,94.3
2019-03-23T07:11:30.929Z,94.3
2019-03-23T07:12:20.951Z,94.3
2019-03-23T07:13:10.969Z,94.3
2019-03-23T07:14:01.579Z,94.3
2019-03-23T07:14:51.514Z,94.3
2019-03-23T07:15:41.641Z,94.3
2019-03-23T07:16:31.783Z,94.4
2019-03-23T07:17:21.540Z,94.3
2019-03-23T07:18:11.538Z,94.4
2019-03-23T07:19:02.094Z,94.4
2019-03-23T07:19:51.637Z,94.4
2019-03-23T07:20:41.532Z,94.3
2019-03-23T07:21:31.824Z,94.3
2019-03-23T07:22:21.714Z,94.4
2019-03-23T07:23:11.541Z,94.4
2019-03-23T07:24:01.805Z,94.4
2019-03-23T07:24:51.576Z,94.4
2019-03-23T07:25:41.579Z,94.4
2019-03-23T07:26:31.554Z,94.4
2019-03-23T07:27:21.613Z,94.4
2019-03-23T07:28:11.594Z,94.4
2019-03-23T07:29:03.383Z,94.4
2019-03-23T07:29:51.561Z,94.4
2019-03-23T07:30:41.558Z,94.4
2019-03-23T07:31:31.576Z,94.4
2019-03-23T07:32:21.705Z,94.4
2019-03-23T07:33:11.564Z,94.4
2019-03-23T07:34:01.584Z,94.4
2019-03-23T07:34:51.538Z,94.1
2019-03-23T07:35:41.519Z,94.4
2019-03-23T07:36:31.577Z,94.4
2019-03-23T07:37:21.559Z,94.4
2019-03-23T07:38:11.844Z,94.4
2019-03-23T07:39:02.347Z,94.4
2019-03-23T07:39:51.803Z,94.4
2019-03-23T07:40:41.801Z,94.4
2019-03-23T07:41:31.817Z,94.3
2019-03-23T07:42:21.836Z,94.4
2019-03-23T07:43:11.871Z,94.4
2019-03-23T07:44:03.475Z,94.4
2019-03-23T07:44:51.832Z,94.4
2019-03-23T07:45:41.795Z,94.3
2019-03-23T07:46:31.777Z,94.3
2019-03-23T07:47:21.881Z,94.3
2019-03-23T07:48:11.821Z,94.3
2019-03-23T07:49:04.494Z,94.3
2019-03-23T07:49:51.804Z,94.3
2019-03-23T07:50:41.776Z,94.3
2019-03-23T07:51:31.753Z,94.3
2019-03-23T07:52:21.822Z,94.3
2019-03-23T07:53:11.985Z,94.3
2019-03-23T07:54:04.672Z,94.3
2019-03-23T07:54:51.929Z,94.3
2019-03-23T07:55:41.804Z,94.4
2019-03-23T07:56:31.834Z,94.4
2019-03-23T07:57:21.801Z,94.3
2019-03-23T07:58:12.064Z,94.3
2019-03-23T07:59:01.816Z,94.4
2019-03-23T07:59:51.810Z,94.3
2019-03-23T08:00:41.796Z,94.3
2019-03-23T08:01:31.794Z,94.3
2019-03-23T08:02:21.809Z,94.3
2019-03-23T08:03:11.816Z,94.3
2019-03-23T08:04:01.791Z,94.3
2019-03-23T08:04:51.819Z,94.3
2019-03-23T08:05:42.863Z,94.3
2019-03-23T08:06:31.862Z,94.3
2019-03-23T08:07:21.777Z,94.3
2019-03-23T08:08:11.859Z,94.2
2019-03-23T08:09:01.809Z,94.2
2019-03-23T08:09:51.818Z,94.2
2019-03-23T08:10:41.742Z,94.2
2019-03-23T08:11:31.795Z,94.2
2019-03-23T08:12:21.800Z,94.2
2019-03-23T08:13:12.992Z,94.2
2019-03-23T08:14:01.773Z,94.2
2019-03-23T08:14:51.747Z,94.2
2019-03-23T08:15:42.150Z,94.2
2019-03-23T08:16:32.028Z,94.2
2019-03-23T08:17:21.978Z,94.1
2019-03-23T08:18:12.189Z,94.1
2019-03-23T08:19:02.023Z,94.1
2019-03-23T08:19:52.269Z,94.2
2019-03-23T08:20:42.376Z,94.2
2019-03-23T08:21:31.880Z,94.1
2019-03-23T08:22:21.890Z,94.1
2019-03-23T08:23:11.757Z,94.1
2019-03-23T08:24:06.306Z,94.1
2019-03-23T08:24:56.138Z,94.1
2019-03-23T08:25:46.110Z,94.1
2019-03-23T08:26:36.109Z,94.1
2019-03-23T08:27:26.119Z,94.1
2019-03-23T08:28:16.113Z,94.1
2019-03-23T08:29:06.121Z,94
2019-03-23T08:29:56.206Z,94.1
2019-03-23T08:30:46.211Z,94.1
2019-03-23T08:31:36.105Z,94
2019-03-23T08:32:26.138Z,94
2019-03-23T08:33:18.138Z,94
2019-03-23T08:34:06.172Z,94
2019-03-23T08:34:58.025Z,94
2019-03-23T08:35:46.177Z,93.9
2019-03-23T08:36:36.109Z,93.9
2019-03-23T08:37:26.117Z,93.9
2019-03-23T08:38:16.361Z,93.9
2019-03-23T08:39:06.365Z,93.8
2019-03-23T08:39:56.370Z,93.9
2019-03-23T08:40:46.358Z,93.9
2019-03-23T08:41:36.383Z,93.8
2019-03-23T08:42:26.369Z,93.8
2019-03-23T08:43:16.653Z,93.7
2019-03-23T08:44:06.342Z,93.8
2019-03-23T08:44:56.874Z,93.8
2019-03-23T08:45:46.431Z,93.7
2019-03-23T08:46:36.596Z,93.7
2019-03-23T08:47:26.645Z,93.7
2019-03-23T08:48:16.543Z,93.6
2019-03-23T08:49:06.827Z,93.7
2019-03-23T08:49:57.023Z,93.7
2019-03-23T08:50:47.034Z,93.6
2019-03-23T08:51:36.989Z,93.6
2019-03-23T08:52:28.886Z,93.5
2019-03-23T08:53:16.601Z,93.5
2019-03-23T08:54:07.259Z,93.4
2019-03-23T08:54:57.505Z,93.4
2019-03-23T08:55:47.485Z,93.4
2019-03-23T08:56:37.552Z,93.4
2019-03-23T08:57:28.224Z,93.4
2019-03-23T08:58:17.977Z,93.4
2019-03-23T08:59:07.749Z,93.4
2019-03-23T08:59:58.188Z,93.3
2019-03-23T09:00:47.715Z,93.3
2019-03-23T09:01:37.701Z,93.3
2019-03-23T09:02:27.722Z,93.3
2019-03-23T09:03:18.296Z,93.2
2019-03-23T09:04:07.995Z,93.2
2019-03-23T09:04:57.730Z,93.2
2019-03-23T09:05:47.687Z,93.1
2019-03-23T09:06:37.692Z,93.1
2019-03-23T09:07:27.799Z,93.1
2019-03-23T09:08:18.579Z,93.1
2019-03-23T09:09:07.690Z,93.1
2019-03-23T09:09:59.241Z,93
2019-03-23T09:10:47.700Z,93
2019-03-23T09:11:37.792Z,93
2019-03-23T09:12:27.696Z,92.9
2019-03-23T09:13:17.701Z,92.9
2019-03-23T09:14:07.701Z,92.9
2019-03-23T09:14:57.769Z,92.9
2019-03-23T09:15:47.713Z,92.8
2019-03-23T09:16:37.712Z,92.8
2019-03-23T09:17:27.886Z,92.8
2019-03-23T09:18:18.938Z,92.7
2019-03-23T09:19:09.139Z,92.7
2019-03-23T09:19:59.203Z,92.7
2019-03-23T09:20:49.875Z,92.7
2019-03-23T09:21:40.563Z,92.6
2019-03-23T09:22:31.421Z,92.6
2019-03-23T09:23:22.024Z,92.6
2019-03-23T09:24:13.101Z,92.6
2019-03-23T09:25:04.403Z,92.5
2019-03-23T09:25:54.423Z,92.5
2019-03-23T09:26:44.399Z,92.5
2019-03-23T09:27:34.192Z,92.4
2019-03-23T09:28:24.628Z,92.4
2019-03-23T09:29:14.535Z,92.4
2019-03-23T09:30:04.700Z,92.4
2019-03-23T09:30:54.867Z,92.3
2019-03-23T09:31:45.090Z,92.2
2019-03-23T09:32:36.313Z,92.1
2019-03-23T09:33:27.784Z,92.1
2019-03-23T09:34:21.014Z,92
2019-03-23T09:35:10.335Z,92
2019-03-23T09:36:02.833Z,92
2019-03-23T09:36:53.362Z,91.9
2019-03-23T09:37:44.912Z,91.8
2019-03-23T09:38:38.069Z,91.8
2019-03-23T09:39:31.516Z,91.8
2019-03-23T09:40:31.299Z,91.7
2019-03-23T09:41:27.040Z,91.7
2019-03-23T09:42:21.157Z,91.6
2019-03-23T09:43:10.566Z,91.6
2019-03-23T09:44:00.985Z,91.6
2019-03-23T09:44:51.190Z,91.4
2019-03-23T09:45:41.545Z,91.3
2019-03-23T09:46:31.996Z,91.3
2019-03-23T09:47:23.123Z,91.3
2019-03-23T09:48:13.435Z,91.2
2019-03-23T09:49:03.908Z,91
2019-03-23T09:49:53.829Z,90.9
2019-03-23T09:50:44.151Z,90.9
2019-03-23T09:51:34.505Z,90.8
2019-03-23T09:52:24.675Z,90.8
2019-03-23T09:53:15.583Z,90.8
2019-03-23T09:54:25.310Z,90.7
2019-03-23T09:55:17.487Z,90.6
2019-03-23T09:56:07.463Z,90.6
2019-03-23T09:57:01.716Z,90.5
2019-03-23T09:57:57.252Z,90.5
2019-03-23T09:58:47.118Z,90.3
2019-03-23T09:59:39.955Z,90.2
2019-03-23T10:00:30.620Z,90.1
2019-03-23T10:01:20.517Z,90.1
2019-03-23T10:02:10.540Z,90
2019-03-23T10:03:00.905Z,89.9
2019-03-23T10:03:50.948Z,89.9
2019-03-23T10:04:42.608Z,89.8
2019-03-23T10:05:32.523Z,89.7
2019-03-23T10:06:26.753Z,89.7
2019-03-23T10:07:15.987Z,89.6
2019-03-23T10:08:13.611Z,89.5
2019-03-23T10:10:08.631Z,89.1
2019-03-23T10:10:58.798Z,89
2019-03-23T10:11:48.411Z,89
2019-03-23T10:12:42.560Z,88.8
2019-03-23T10:13:33.726Z,88.7
2019-03-23T10:14:27.795Z,88.6
2019-03-23T10:15:17.930Z,88.6
2019-03-23T10:16:14.233Z,88.4
2019-03-23T10:17:04.563Z,87.9
2019-03-23T10:18:04.490Z,88.2
2019-03-23T10:19:01.171Z,87.8
2019-03-23T10:19:51.358Z,87.8
2019-03-23T10:20:41.169Z,87.8
2019-03-23T10:21:32.130Z,87.8
2019-03-23T10:22:27.929Z,87.7
2019-03-23T10:23:16.201Z,87.7
2019-03-23T10:24:16.278Z,87.6
2019-03-23T10:25:11.005Z,87.5
2019-03-23T10:26:01.050Z,87.1
2019-03-23T10:26:52.213Z,87.1
2019-03-23T10:27:41.282Z,87
2019-03-23T10:28:31.202Z,87.1
2019-03-23T10:29:21.679Z,86.9
2019-03-23T10:30:11.786Z,86.8
2019-03-23T10:31:04.216Z,86.6
2019-03-23T10:31:55.735Z,86.4
2019-03-23T10:32:44.629Z,86.3
2019-03-23T10:33:37.068Z,86.3
2019-03-23T10:34:29.737Z,86.3
2019-03-23T10:35:17.373Z,86.3
2019-03-23T10:36:07.488Z,86.3
2019-03-23T10:36:57.376Z,86.3
2019-03-23T10:37:48.150Z,86.2
2019-03-23T10:38:47.303Z,86.1
2019-03-23T10:39:37.335Z,86
2019-03-23T10:40:32.597Z,86
2019-03-23T10:41:17.208Z,85.8
2019-03-23T10:42:17.463Z,85.8
2019-03-23T10:42:58.825Z,85.7
2019-03-23T10:43:48.907Z,85.7
2019-03-23T10:44:41.465Z,85.6
2019-03-23T10:45:39.947Z,85.5
2019-03-23T10:46:21.533Z,85.3
2019-03-23T10:47:12.543Z,85.3
2019-03-23T10:48:05.592Z,85.2
2019-03-23T10:49:00.948Z,85.3
2019-03-23T10:49:51.778Z,85.1
2019-03-23T10:50:41.587Z,85.1
2019-03-23T10:51:32.495Z,85
2019-03-23T10:52:22.194Z,85
2019-03-23T10:53:12.184Z,84.9
2019-03-23T10:54:03.967Z,84.9
2019-03-23T10:54:52.211Z,84.8
2019-03-23T10:55:42.771Z,84.5
2019-03-23T10:56:32.975Z,84.2
2019-03-23T10:57:23.248Z,84.1
2019-03-23T10:58:13.320Z,83.9
2019-03-23T10:59:03.332Z,83.7
2019-03-23T10:59:56.536Z,83.8
2019-03-23T11:00:48.230Z,83.7
2019-03-23T11:01:38.303Z,83.7
2019-03-23T11:02:28.262Z,83.5
2019-03-23T11:03:18.208Z,83.4
2019-03-23T11:04:08.244Z,83.3
2019-03-23T11:04:58.268Z,83.2
2019-03-23T11:05:48.264Z,82.8
2019-03-23T11:06:38.240Z,82.3
2019-03-23T11:07:30.330Z,82.4
2019-03-23T11:08:20.124Z,82.4
2019-03-23T11:09:10.134Z,82.3
2019-03-23T11:10:00.573Z,81.8
2019-03-23T11:10:50.135Z,81.7
2019-03-23T11:11:43.546Z,81.8
2019-03-23T11:12:37.105Z,81.7
2019-03-23T11:13:28.429Z,81.2